Aérodrome :
LOGIN :

S'inscrire | Disclaimer

   EN    FR    IT 

 










Légende :    VFR   VFR Marginal   IFR   IFR Intensif   IFR Très Intensif
Visi : 
Plafond : 
>= 8 km
>= 3000ft
5 à 8 km
1000 à 3000 ft
1500m à 5 km
500 à 1000 ft
800 à 1500m
200 à 500 ft
< 800m
< 200 ft
Symboles :   Orages  Brouillard  Fortes neiges  Fortes précipitations  Vent > 20 kt
SIGMETs :   Divers  Orages  Givrage  Turbulence  Onde Orograph.  Cendres Volcan.







- Altitude de l'aérodrome : 12 ft
- Code IATA : BCN


LEBL - Barcelone

DERNIER METAR :
  • 181600Z 11002KT 9999 SCT017 FEW025TCU 24/21 Q1017 NOSIG

METARs EXPIRÉS :
  • 181530Z 09004KT 060V120 9999 FEW015 FEW025CB 24/20 Q1017 NOSIG
  • 181500Z 10005KT 9999 FEW020 FEW025CB 24/20 Q1017 NOSIG
  • 181430Z 11007KT 080V140 9999 4500W -RA VCSH FEW013 FEW025CB SCT030 24/20 Q1017 NOSIG
  • 181400Z 10008KT 9999 RA BKN013 FEW025CB SCT035 25/20 Q1017 NOSIG
  • 181330Z 10008KT 9999 BKN013 FEW025CB 24/21 Q1017 NOSIG

TAF TAF LEBL
Valide du 18 à 12h jusqu'au 19 à 12h UTC


181100Z 1812/1912 08010KT 9999 SCT018 TX26/1812Z TN21/1906Z
BECMG 1821/1823 34006KT
BECMG 1908/1910 08010KT
PROB40
TEMPO 1812/1908 4000 SHRA BKN020 FEW025CB
PROB30
TEMPO 1812/1908 3000 TSRA BKN015 FEW020CB
Pas de NOTAMs connus pour ce terrain.
2 SIGMETs publiés pour la FIR Barcelona (LECB) :
 
Orages noyés dans la masse
LECB SIGMET 7 VALID 181435/181830 LEVA
LECB BARCELONA FIR/UIR EMBD TS FCST WI N41 W001 - N4040 E00010 - N3930 W001 - N3840 W00030 - N3810 W00130 - N41 W001 TOP FL380 STNR NC=
Orages noyés dans la masse
LECB SIGMET 6 VALID 181435/181830 LEVA
LECB BARCELONA FIR/UIR EMBD TS FCST WI N4220 E00240 - N4130 E00140 - N42 E00130 - N4230 W00040 - N4250 W00040 - N4220 E00240 TOP FL380 STNR NC=



MET'MAP, la Météo Aéronautique d'un coup d'oeil ! - Copyright ORBIFLY Décembre 2007 - Disclaimer

ORBIFLY MET'MAP TEAM :

Programmation & Développement : Alexandra Zaïnal
Conception & Développement : Baudouin d'Aumeries
Co-Programmation & Développement : Marc-Olivier Méhu
Soutien technique & logistique : Manuel Goepfert

Contact : metmap@orbifly.com




SOURCES & CREDITS :

   NOAA